Decoded Metar for KASX (ASHLAND in WI, USA) (IATA:ASX) | Meteo·Mobile Aviation Weather
aviador You're here:

KASX Decoded Metar

ASHLAND in WI, USA
Report Time2018-10-20 07:53:00
UTC Time2018-10-20 08:09:19
Flight Rules mvfr MVFR
Wind260° at 08 kt
W.Decomp.*RWY 31: 5.4 kt HW 5.9 kt LCW
RWY 20: 3.8 kt HW 7.1 kt RCW
W.Rank260° ranks 9
Current wind is above 260° avg. (7.1)
Visibility9999 m
Phenomena:N/A
Clouds:Overcast 020 Hf
Expected CloudBase > 400 ft AGL from Temp-Dew spread
Ceiling2,000 ft
Temp04°C (ISA -9)
Dew Point03°C (93% RH)
AAT-0.4°C
QNH1008 hPa
Density Alt-33 ft
Elevation823 ft
Report Wrong Elevation
Raw Report
KASX 200753Z AUTO 26008KT 10SM OVC020 04/03 A2976 RMK AO2
RAB0656E43 SLP082 P0001 T00440033=

Extra information for KASX:More info

Metar Taf Metar & Taf Last 4 Metars F.Rules Stats Wind Profile Meteogram Temp Stats Airport Information Weather charts Add Link Nearby VenuesMetar ALERT Operation Metar Decoded Social comments

AIRNAV info for KASX